sensor_id;sensor_type;location;lat;lon;timestamp;P1;durP1;ratioP1;P2;durP2;ratioP2
21677;SDS011;11000;50.360;7.582;2023-04-12T00:02:00;6.13;;;1.60;;
21677;SDS011;11000;50.360;7.582;2023-04-12T00:04:20;4.53;;;1.70;;
21677;SDS011;11000;50.360;7.582;2023-04-12T00:06:41;6.47;;;1.53;;
21677;SDS011;11000;50.360;7.582;2023-04-12T00:09:07;3.97;;;1.63;;
21677;SDS011;11000;50.360;7.582;2023-04-12T00:11:29;5.17;;;1.63;;
21677;SDS011;11000;50.360;7.582;2023-04-12T00:13:53;2.50;;;1.13;;
21677;SDS011;11000;50.360;7.582;2023-04-12T00:16:14;2.93;;;1.50;;
21677;SDS011;11000;50.360;7.582;2023-04-12T00:18:37;4.20;;;1.53;;
21677;SDS011;11000;50.360;7.582;2023-04-12T00:20:58;7.00;;;2.07;;
21677;SDS011;11000;50.360;7.582;2023-04-12T00:23:18;5.33;;;1.67;;
21677;SDS011;11000;50.360;7.582;2023-04-12T00:25:39;3.97;;;1.80;;
21677;SDS011;11000;50.360;7.582;2023-04-12T00:28:00;6.23;;;1.60;;
21677;SDS011;11000;50.360;7.582;2023-04-12T00:30:20;3.67;;;1.80;;
21677;SDS011;11000;50.360;7.582;2023-04-12T00:32:42;4.27;;;1.67;;
21677;SDS011;11000;50.360;7.582;2023-04-12T00:35:03;7.30;;;1.83;;
21677;SDS011;11000;50.360;7.582;2023-04-12T00:37:23;3.03;;;1.40;;
21677;SDS011;11000;50.360;7.582;2023-04-12T00:39:44;3.23;;;1.53;;
21677;SDS011;11000;50.360;7.582;2023-04-12T00:42:05;7.90;;;2.13;;
21677;SDS011;11000;50.360;7.582;2023-04-12T00:44:25;7.90;;;2.23;;
21677;SDS011;11000;50.360;7.582;2023-04-12T00:46:46;6.27;;;1.60;;
21677;SDS011;11000;50.360;7.582;2023-04-12T00:49:06;6.10;;;1.50;;
21677;SDS011;11000;50.360;7.582;2023-04-12T00:51:27;4.10;;;1.67;;
21677;SDS011;11000;50.360;7.582;2023-04-12T00:53:52;7.10;;;1.90;;
21677;SDS011;11000;50.360;7.582;2023-04-12T00:56:18;4.87;;;1.97;;
21677;SDS011;11000;50.360;7.582;2023-04-12T00:58:42;5.60;;;1.87;;
21677;SDS011;11000;50.360;7.582;2023-04-12T01:01:03;6.90;;;1.60;;
21677;SDS011;11000;50.360;7.582;2023-04-12T01:03:23;4.03;;;1.90;;
21677;SDS011;11000;50.360;7.582;2023-04-12T01:05:48;6.07;;;2.17;;
21677;SDS011;11000;50.360;7.582;2023-04-12T01:08:23;9.10;;;1.43;;
21677;SDS011;11000;50.360;7.582;2023-04-12T01:13:50;6.93;;;2.87;;
21677;SDS011;11000;50.360;7.582;2023-04-12T01:16:41;5.60;;;1.57;;
21677;SDS011;11000;50.360;7.582;2023-04-12T01:19:11;4.37;;;1.60;;
21677;SDS011;11000;50.360;7.582;2023-04-12T01:22:12;8.47;;;1.73;;
21677;SDS011;11000;50.360;7.582;2023-04-12T01:27:47;4.80;;;1.27;;
21677;SDS011;11000;50.360;7.582;2023-04-12T01:30:11;5.33;;;1.60;;
21677;SDS011;11000;50.360;7.582;2023-04-12T01:32:35;6.40;;;1.70;;
21677;SDS011;11000;50.360;7.582;2023-04-12T01:34:58;4.67;;;1.40;;
21677;SDS011;11000;50.360;7.582;2023-04-12T01:37:21;5.33;;;2.17;;
21677;SDS011;11000;50.360;7.582;2023-04-12T01:39:43;4.50;;;1.67;;
21677;SDS011;11000;50.360;7.582;2023-04-12T01:42:04;5.57;;;1.73;;
21677;SDS011;11000;50.360;7.582;2023-04-12T01:44:24;9.03;;;1.87;;
21677;SDS011;11000;50.360;7.582;2023-04-12T01:46:45;4.43;;;1.60;;
21677;SDS011;11000;50.360;7.582;2023-04-12T01:49:06;6.80;;;1.90;;
21677;SDS011;11000;50.360;7.582;2023-04-12T01:51:33;5.93;;;1.63;;
21677;SDS011;11000;50.360;7.582;2023-04-12T01:54:11;3.80;;;1.53;;
21677;SDS011;11000;50.360;7.582;2023-04-12T01:56:37;7.20;;;2.13;;
21677;SDS011;11000;50.360;7.582;2023-04-12T01:59:02;3.83;;;1.40;;
21677;SDS011;11000;50.360;7.582;2023-04-12T02:01:23;6.77;;;1.37;;
21677;SDS011;11000;50.360;7.582;2023-04-12T02:03:44;8.03;;;1.70;;
21677;SDS011;11000;50.360;7.582;2023-04-12T02:06:08;3.67;;;1.67;;
21677;SDS011;11000;50.360;7.582;2023-04-12T02:08:29;6.53;;;1.60;;
21677;SDS011;11000;50.360;7.582;2023-04-12T02:10:51;5.67;;;1.57;;
21677;SDS011;11000;50.360;7.582;2023-04-12T02:13:14;4.53;;;1.60;;
21677;SDS011;11000;50.360;7.582;2023-04-12T02:15:37;4.77;;;1.70;;
21677;SDS011;11000;50.360;7.582;2023-04-12T02:17:59;8.83;;;2.23;;
21677;SDS011;11000;50.360;7.582;2023-04-12T02:20:23;6.70;;;1.70;;
21677;SDS011;11000;50.360;7.582;2023-04-12T02:22:44;4.00;;;1.67;;
21677;SDS011;11000;50.360;7.582;2023-04-12T02:25:05;4.37;;;1.50;;
21677;SDS011;11000;50.360;7.582;2023-04-12T02:27:26;7.03;;;1.93;;
21677;SDS011;11000;50.360;7.582;2023-04-12T02:29:46;3.60;;;1.50;;
21677;SDS011;11000;50.360;7.582;2023-04-12T02:32:07;3.47;;;1.73;;
21677;SDS011;11000;50.360;7.582;2023-04-12T02:34:27;5.23;;;1.83;;
21677;SDS011;11000;50.360;7.582;2023-04-12T02:36:53;5.73;;;1.80;;
21677;SDS011;11000;50.360;7.582;2023-04-12T02:39:13;5.40;;;1.90;;
21677;SDS011;11000;50.360;7.582;2023-04-12T02:41:37;8.57;;;1.90;;
21677;SDS011;11000;50.360;7.582;2023-04-12T02:43:57;5.63;;;1.87;;
21677;SDS011;11000;50.360;7.582;2023-04-12T02:46:20;6.50;;;1.63;;
21677;SDS011;11000;50.360;7.582;2023-04-12T02:48:42;2.57;;;1.30;;
21677;SDS011;11000;50.360;7.582;2023-04-12T02:51:03;4.13;;;1.70;;
21677;SDS011;11000;50.360;7.582;2023-04-12T02:53:23;3.93;;;1.40;;
21677;SDS011;11000;50.360;7.582;2023-04-12T02:55:44;6.67;;;1.70;;
21677;SDS011;11000;50.360;7.582;2023-04-12T02:58:04;4.23;;;1.93;;
21677;SDS011;11000;50.360;7.582;2023-04-12T03:00:25;6.03;;;2.00;;
21677;SDS011;11000;50.360;7.582;2023-04-12T03:02:46;4.93;;;1.63;;
21677;SDS011;11000;50.360;7.582;2023-04-12T03:05:10;6.87;;;1.87;;
21677;SDS011;11000;50.360;7.582;2023-04-12T03:07:31;6.90;;;1.70;;
21677;SDS011;11000;50.360;7.582;2023-04-12T03:09:51;5.20;;;2.13;;
21677;SDS011;11000;50.360;7.582;2023-04-12T03:12:15;3.63;;;2.03;;
21677;SDS011;11000;50.360;7.582;2023-04-12T03:14:36;6.53;;;2.00;;
21677;SDS011;11000;50.360;7.582;2023-04-12T03:16:56;3.90;;;1.53;;
21677;SDS011;11000;50.360;7.582;2023-04-12T03:19:17;5.77;;;1.70;;
21677;SDS011;11000;50.360;7.582;2023-04-12T03:21:37;2.63;;;1.57;;
21677;SDS011;11000;50.360;7.582;2023-04-12T03:23:58;4.80;;;2.30;;
21677;SDS011;11000;50.360;7.582;2023-04-12T03:26:18;2.83;;;1.50;;
21677;SDS011;11000;50.360;7.582;2023-04-12T03:28:39;4.13;;;1.63;;
21677;SDS011;11000;50.360;7.582;2023-04-12T03:31:00;4.93;;;1.73;;
21677;SDS011;11000;50.360;7.582;2023-04-12T03:33:21;4.17;;;1.70;;
21677;SDS011;11000;50.360;7.582;2023-04-12T03:35:43;4.60;;;1.43;;
21677;SDS011;11000;50.360;7.582;2023-04-12T03:38:04;3.17;;;1.27;;
21677;SDS011;11000;50.360;7.582;2023-04-12T03:40:24;3.73;;;1.80;;
21677;SDS011;11000;50.360;7.582;2023-04-12T03:42:45;2.43;;;1.50;;
21677;SDS011;11000;50.360;7.582;2023-04-12T03:45:05;2.60;;;1.20;;
21677;SDS011;11000;50.360;7.582;2023-04-12T03:47:26;3.40;;;1.53;;
21677;SDS011;11000;50.360;7.582;2023-04-12T03:49:47;6.10;;;1.67;;
21677;SDS011;11000;50.360;7.582;2023-04-12T03:52:08;4.77;;;1.30;;
21677;SDS011;11000;50.360;7.582;2023-04-12T03:54:28;3.30;;;1.20;;
21677;SDS011;11000;50.360;7.582;2023-04-12T03:56:49;1.50;;;1.33;;
21677;SDS011;11000;50.360;7.582;2023-04-12T03:59:09;1.90;;;1.20;;
21677;SDS011;11000;50.360;7.582;2023-04-12T04:01:30;4.40;;;1.93;;
21677;SDS011;11000;50.360;7.582;2023-04-12T04:03:51;2.00;;;1.23;;
21677;SDS011;11000;50.360;7.582;2023-04-12T04:06:11;3.13;;;1.23;;
21677;SDS011;11000;50.360;7.582;2023-04-12T04:08:32;2.40;;;1.10;;
21677;SDS011;11000;50.360;7.582;2023-04-12T04:10:53;1.73;;;1.10;;
21677;SDS011;11000;50.360;7.582;2023-04-12T04:13:15;2.00;;;1.20;;
21677;SDS011;11000;50.360;7.582;2023-04-12T04:15:36;3.03;;;1.47;;
21677;SDS011;11000;50.360;7.582;2023-04-12T04:17:56;2.33;;;1.13;;
21677;SDS011;11000;50.360;7.582;2023-04-12T04:20:18;2.40;;;1.17;;
21677;SDS011;11000;50.360;7.582;2023-04-12T04:22:38;2.03;;;1.00;;
21677;SDS011;11000;50.360;7.582;2023-04-12T04:25:01;2.03;;;1.10;;
21677;SDS011;11000;50.360;7.582;2023-04-12T04:27:22;3.90;;;1.00;;
21677;SDS011;11000;50.360;7.582;2023-04-12T04:29:42;1.17;;;0.80;;
21677;SDS011;11000;50.360;7.582;2023-04-12T04:32:04;3.57;;;1.40;;
21677;SDS011;11000;50.360;7.582;2023-04-12T04:34:26;1.27;;;0.80;;
21677;SDS011;11000;50.360;7.582;2023-04-12T04:36:46;0.97;;;0.90;;
21677;SDS011;11000;50.360;7.582;2023-04-12T04:39:07;2.43;;;0.73;;
21677;SDS011;11000;50.360;7.582;2023-04-12T04:41:30;4.27;;;1.10;;
21677;SDS011;11000;50.360;7.582;2023-04-12T04:43:53;2.33;;;1.20;;
21677;SDS011;11000;50.360;7.582;2023-04-12T04:46:14;1.03;;;0.83;;
21677;SDS011;11000;50.360;7.582;2023-04-12T04:48:34;1.63;;;0.80;;
21677;SDS011;11000;50.360;7.582;2023-04-12T04:50:55;2.73;;;1.10;;
21677;SDS011;11000;50.360;7.582;2023-04-12T04:53:16;2.27;;;1.20;;
21677;SDS011;11000;50.360;7.582;2023-04-12T04:55:38;1.57;;;0.97;;
21677;SDS011;11000;50.360;7.582;2023-04-12T04:57:58;3.33;;;0.90;;
21677;SDS011;11000;50.360;7.582;2023-04-12T05:00:19;1.80;;;1.10;;
21677;SDS011;11000;50.360;7.582;2023-04-12T05:02:40;2.93;;;1.30;;
21677;SDS011;11000;50.360;7.582;2023-04-12T05:05:02;2.83;;;1.00;;
21677;SDS011;11000;50.360;7.582;2023-04-12T05:07:23;1.93;;;0.90;;
21677;SDS011;11000;50.360;7.582;2023-04-12T05:09:44;1.80;;;0.87;;
21677;SDS011;11000;50.360;7.582;2023-04-12T05:12:05;0.93;;;0.83;;
21677;SDS011;11000;50.360;7.582;2023-04-12T05:14:26;1.83;;;1.13;;
21677;SDS011;11000;50.360;7.582;2023-04-12T05:16:46;2.80;;;0.90;;
21677;SDS011;11000;50.360;7.582;2023-04-12T05:19:07;1.73;;;1.33;;
21677;SDS011;11000;50.360;7.582;2023-04-12T05:21:27;3.57;;;1.00;;
21677;SDS011;11000;50.360;7.582;2023-04-12T05:23:48;2.80;;;1.40;;
21677;SDS011;11000;50.360;7.582;2023-04-12T05:26:09;2.40;;;1.27;;
21677;SDS011;11000;50.360;7.582;2023-04-12T05:28:30;2.97;;;1.20;;
21677;SDS011;11000;50.360;7.582;2023-04-12T05:30:50;2.50;;;1.13;;
21677;SDS011;11000;50.360;7.582;2023-04-12T05:33:11;1.53;;;1.00;;
21677;SDS011;11000;50.360;7.582;2023-04-12T05:35:31;1.43;;;1.00;;
21677;SDS011;11000;50.360;7.582;2023-04-12T05:37:52;2.90;;;1.10;;
21677;SDS011;11000;50.360;7.582;2023-04-12T05:40:12;1.23;;;0.90;;
21677;SDS011;11000;50.360;7.582;2023-04-12T05:42:33;2.20;;;1.20;;
21677;SDS011;11000;50.360;7.582;2023-04-12T05:44:53;1.63;;;1.30;;
21677;SDS011;11000;50.360;7.582;2023-04-12T05:47:15;1.53;;;0.90;;
21677;SDS011;11000;50.360;7.582;2023-04-12T05:49:36;2.23;;;1.33;;
21677;SDS011;11000;50.360;7.582;2023-04-12T05:51:56;1.43;;;1.20;;
21677;SDS011;11000;50.360;7.582;2023-04-12T05:54:17;2.67;;;1.00;;
21677;SDS011;11000;50.360;7.582;2023-04-12T05:56:40;2.37;;;1.33;;
21677;SDS011;11000;50.360;7.582;2023-04-12T05:59:00;2.30;;;1.20;;
21677;SDS011;11000;50.360;7.582;2023-04-12T06:01:21;2.30;;;1.10;;
21677;SDS011;11000;50.360;7.582;2023-04-12T06:03:41;1.30;;;1.03;;
21677;SDS011;11000;50.360;7.582;2023-04-12T06:06:02;1.60;;;1.10;;
21677;SDS011;11000;50.360;7.582;2023-04-12T06:08:25;1.77;;;0.83;;
21677;SDS011;11000;50.360;7.582;2023-04-12T06:10:48;1.00;;;0.90;;
21677;SDS011;11000;50.360;7.582;2023-04-12T06:13:08;1.83;;;1.23;;
21677;SDS011;11000;50.360;7.582;2023-04-12T06:15:29;1.57;;;1.00;;
21677;SDS011;11000;50.360;7.582;2023-04-12T06:17:50;2.17;;;1.20;;
21677;SDS011;11000;50.360;7.582;2023-04-12T06:20:11;2.07;;;0.90;;
21677;SDS011;11000;50.360;7.582;2023-04-12T06:22:32;1.50;;;1.10;;
21677;SDS011;11000;50.360;7.582;2023-04-12T06:24:52;3.30;;;1.50;;
21677;SDS011;11000;50.360;7.582;2023-04-12T06:27:13;2.03;;;1.40;;
21677;SDS011;11000;50.360;7.582;2023-04-12T06:29:33;1.60;;;1.10;;
21677;SDS011;11000;50.360;7.582;2023-04-12T06:31:54;2.27;;;1.17;;
21677;SDS011;11000;50.360;7.582;2023-04-12T06:34:14;1.10;;;1.00;;
21677;SDS011;11000;50.360;7.582;2023-04-12T06:36:35;1.03;;;0.97;;
21677;SDS011;11000;50.360;7.582;2023-04-12T06:38:56;4.00;;;1.50;;
21677;SDS011;11000;50.360;7.582;2023-04-12T06:41:16;1.67;;;1.20;;
21677;SDS011;11000;50.360;7.582;2023-04-12T06:43:37;5.23;;;1.13;;
21677;SDS011;11000;50.360;7.582;2023-04-12T06:45:57;2.80;;;1.00;;
21677;SDS011;11000;50.360;7.582;2023-04-12T06:48:18;1.93;;;1.20;;
21677;SDS011;11000;50.360;7.582;2023-04-12T06:50:39;3.10;;;0.80;;
21677;SDS011;11000;50.360;7.582;2023-04-12T06:52:59;1.27;;;1.00;;
21677;SDS011;11000;50.360;7.582;2023-04-12T06:55:20;1.60;;;0.90;;
21677;SDS011;11000;50.360;7.582;2023-04-12T06:57:41;3.03;;;1.17;;
21677;SDS011;11000;50.360;7.582;2023-04-12T07:00:02;2.67;;;1.13;;
21677;SDS011;11000;50.360;7.582;2023-04-12T07:02:23;1.37;;;0.97;;
21677;SDS011;11000;50.360;7.582;2023-04-12T07:04:43;1.60;;;1.17;;
21677;SDS011;11000;50.360;7.582;2023-04-12T07:07:05;1.20;;;0.90;;
21677;SDS011;11000;50.360;7.582;2023-04-12T07:09:25;1.43;;;1.33;;
21677;SDS011;11000;50.360;7.582;2023-04-12T07:11:46;2.03;;;1.13;;
21677;SDS011;11000;50.360;7.582;2023-04-12T07:14:07;2.10;;;1.00;;
21677;SDS011;11000;50.360;7.582;2023-04-12T07:16:28;1.13;;;0.90;;
21677;SDS011;11000;50.360;7.582;2023-04-12T07:18:50;1.60;;;1.37;;
21677;SDS011;11000;50.360;7.582;2023-04-12T07:21:10;1.97;;;1.10;;
21677;SDS011;11000;50.360;7.582;2023-04-12T07:23:36;1.77;;;1.20;;
21677;SDS011;11000;50.360;7.582;2023-04-12T07:26:00;3.00;;;0.80;;
21677;SDS011;11000;50.360;7.582;2023-04-12T07:28:21;2.73;;;1.37;;
21677;SDS011;11000;50.360;7.582;2023-04-12T07:30:41;1.20;;;1.10;;
21677;SDS011;11000;50.360;7.582;2023-04-12T07:33:02;4.77;;;1.27;;
21677;SDS011;11000;50.360;7.582;2023-04-12T07:35:24;1.07;;;0.97;;
21677;SDS011;11000;50.360;7.582;2023-04-12T07:37:45;1.83;;;1.03;;
21677;SDS011;11000;50.360;7.582;2023-04-12T07:40:06;1.23;;;1.10;;
21677;SDS011;11000;50.360;7.582;2023-04-12T07:42:26;2.53;;;1.23;;
21677;SDS011;11000;50.360;7.582;2023-04-12T07:44:47;1.20;;;1.10;;
21677;SDS011;11000;50.360;7.582;2023-04-12T07:47:08;2.47;;;1.07;;
21677;SDS011;11000;50.360;7.582;2023-04-12T07:49:28;2.47;;;0.97;;
21677;SDS011;11000;50.360;7.582;2023-04-12T07:51:48;1.60;;;1.00;;
21677;SDS011;11000;50.360;7.582;2023-04-12T07:54:09;2.47;;;1.03;;
21677;SDS011;11000;50.360;7.582;2023-04-12T07:56:32;0.97;;;0.87;;
21677;SDS011;11000;50.360;7.582;2023-04-12T07:58:54;0.70;;;0.70;;
21677;SDS011;11000;50.360;7.582;2023-04-12T08:01:14;0.90;;;0.90;;
21677;SDS011;11000;50.360;7.582;2023-04-12T08:03:35;1.00;;;0.90;;
21677;SDS011;11000;50.360;7.582;2023-04-12T08:05:56;1.07;;;0.90;;
21677;SDS011;11000;50.360;7.582;2023-04-12T08:08:17;0.77;;;0.67;;
21677;SDS011;11000;50.360;7.582;2023-04-12T08:10:39;1.07;;;0.83;;
21677;SDS011;11000;50.360;7.582;2023-04-12T08:13:00;1.00;;;0.83;;
21677;SDS011;11000;50.360;7.582;2023-04-12T08:15:20;1.00;;;0.80;;
21677;SDS011;11000;50.360;7.582;2023-04-12T08:17:41;1.10;;;1.00;;
21677;SDS011;11000;50.360;7.582;2023-04-12T08:20:02;1.27;;;0.50;;
21677;SDS011;11000;50.360;7.582;2023-04-12T08:22:24;0.83;;;0.80;;
21677;SDS011;11000;50.360;7.582;2023-04-12T08:24:45;1.30;;;0.83;;
21677;SDS011;11000;50.360;7.582;2023-04-12T08:27:05;0.90;;;0.90;;
21677;SDS011;11000;50.360;7.582;2023-04-12T08:29:26;0.70;;;0.70;;
21677;SDS011;11000;50.360;7.582;2023-04-12T08:31:46;0.60;;;0.60;;
21677;SDS011;11000;50.360;7.582;2023-04-12T08:34:07;0.47;;;0.47;;
21677;SDS011;11000;50.360;7.582;2023-04-12T08:36:28;0.70;;;0.70;;
21677;SDS011;11000;50.360;7.582;2023-04-12T08:38:48;0.60;;;0.60;;
21677;SDS011;11000;50.360;7.582;2023-04-12T08:41:11;1.03;;;0.60;;
21677;SDS011;11000;50.360;7.582;2023-04-12T08:43:32;1.40;;;0.90;;
21677;SDS011;11000;50.360;7.582;2023-04-12T08:45:53;0.90;;;0.70;;
21677;SDS011;11000;50.360;7.582;2023-04-12T08:48:15;1.57;;;0.87;;
21677;SDS011;11000;50.360;7.582;2023-04-12T08:50:42;0.77;;;0.77;;
21677;SDS011;11000;50.360;7.582;2023-04-12T08:53:03;1.23;;;0.77;;
21677;SDS011;11000;50.360;7.582;2023-04-12T08:55:24;1.13;;;0.80;;
21677;SDS011;11000;50.360;7.582;2023-04-12T08:57:44;1.00;;;0.83;;
21677;SDS011;11000;50.360;7.582;2023-04-12T09:00:07;3.70;;;0.83;;
21677;SDS011;11000;50.360;7.582;2023-04-12T09:02:28;0.67;;;0.63;;
21677;SDS011;11000;50.360;7.582;2023-04-12T09:04:50;1.17;;;0.63;;
21677;SDS011;11000;50.360;7.582;2023-04-12T09:07:12;1.80;;;0.83;;
21677;SDS011;11000;50.360;7.582;2023-04-12T09:09:42;2.40;;;0.90;;
21677;SDS011;11000;50.360;7.582;2023-04-12T09:12:06;1.00;;;0.90;;
21677;SDS011;11000;50.360;7.582;2023-04-12T09:14:27;1.00;;;0.80;;
21677;SDS011;11000;50.360;7.582;2023-04-12T09:16:48;1.60;;;0.80;;
21677;SDS011;11000;50.360;7.582;2023-04-12T09:19:09;0.97;;;0.83;;
21677;SDS011;11000;50.360;7.582;2023-04-12T09:21:33;0.70;;;0.63;;
21677;SDS011;11000;50.360;7.582;2023-04-12T09:24:03;0.93;;;0.70;;
21677;SDS011;11000;50.360;7.582;2023-04-12T09:26:29;1.13;;;0.57;;
21677;SDS011;11000;50.360;7.582;2023-04-12T09:28:50;2.10;;;0.80;;
21677;SDS011;11000;50.360;7.582;2023-04-12T09:31:14;1.50;;;0.60;;
21677;SDS011;11000;50.360;7.582;2023-04-12T09:33:36;0.70;;;0.70;;
21677;SDS011;11000;50.360;7.582;2023-04-12T09:36:01;0.70;;;0.70;;
21677;SDS011;11000;50.360;7.582;2023-04-12T09:38:23;0.73;;;0.50;;
21677;SDS011;11000;50.360;7.582;2023-04-12T09:40:43;3.13;;;0.57;;
21677;SDS011;11000;50.360;7.582;2023-04-12T09:43:04;0.80;;;0.60;;
21677;SDS011;11000;50.360;7.582;2023-04-12T09:45:25;0.83;;;0.63;;
21677;SDS011;11000;50.360;7.582;2023-04-12T09:47:47;1.33;;;0.50;;
21677;SDS011;11000;50.360;7.582;2023-04-12T09:50:08;1.27;;;0.77;;
21677;SDS011;11000;50.360;7.582;2023-04-12T09:52:38;1.13;;;0.80;;
21677;SDS011;11000;50.360;7.582;2023-04-12T09:54:59;2.10;;;0.70;;
21677;SDS011;11000;50.360;7.582;2023-04-12T09:57:19;1.07;;;0.77;;
21677;SDS011;11000;50.360;7.582;2023-04-12T09:59:42;1.03;;;0.37;;
21677;SDS011;11000;50.360;7.582;2023-04-12T10:02:05;0.60;;;0.60;;
21677;SDS011;11000;50.360;7.582;2023-04-12T10:04:30;1.17;;;0.50;;
21677;SDS011;11000;50.360;7.582;2023-04-12T10:06:52;0.67;;;0.67;;
21677;SDS011;11000;50.360;7.582;2023-04-12T10:09:13;1.67;;;0.60;;
21677;SDS011;11000;50.360;7.582;2023-04-12T10:11:33;0.80;;;0.80;;
21677;SDS011;11000;50.360;7.582;2023-04-12T10:13:55;1.10;;;0.60;;
21677;SDS011;11000;50.360;7.582;2023-04-12T10:16:15;0.60;;;0.30;;
21677;SDS011;11000;50.360;7.582;2023-04-12T10:18:37;1.60;;;0.80;;
21677;SDS011;11000;50.360;7.582;2023-04-12T10:20:58;2.00;;;0.60;;
21677;SDS011;11000;50.360;7.582;2023-04-12T10:23:18;0.83;;;0.60;;
21677;SDS011;11000;50.360;7.582;2023-04-12T10:25:39;0.50;;;0.50;;
21677;SDS011;11000;50.360;7.582;2023-04-12T10:28:18;0.60;;;0.50;;
21677;SDS011;11000;50.360;7.582;2023-04-12T10:30:40;0.67;;;0.67;;
21677;SDS011;11000;50.360;7.582;2023-04-12T10:35:21;0.63;;;0.50;;
21677;SDS011;11000;50.360;7.582;2023-04-12T10:40:19;1.00;;;0.83;;
21677;SDS011;11000;50.360;7.582;2023-04-12T10:42:40;1.97;;;0.80;;
21677;SDS011;11000;50.360;7.582;2023-04-12T10:55:34;0.83;;;0.57;;
21677;SDS011;11000;50.360;7.582;2023-04-12T10:57:55;0.87;;;0.70;;
21677;SDS011;11000;50.360;7.582;2023-04-12T11:00:15;1.27;;;0.80;;
21677;SDS011;11000;50.360;7.582;2023-04-12T11:03:00;1.37;;;1.10;;
21677;SDS011;11000;50.360;7.582;2023-04-12T11:05:24;0.50;;;0.50;;
21677;SDS011;11000;50.360;7.582;2023-04-12T11:07:45;0.83;;;0.70;;
21677;SDS011;11000;50.360;7.582;2023-04-12T11:10:12;0.80;;;0.60;;
21677;SDS011;11000;50.360;7.582;2023-04-12T11:12:34;0.50;;;0.50;;
21677;SDS011;11000;50.360;7.582;2023-04-12T11:14:58;0.77;;;0.70;;
21677;SDS011;11000;50.360;7.582;2023-04-12T11:17:20;0.67;;;0.50;;
21677;SDS011;11000;50.360;7.582;2023-04-12T11:19:42;0.83;;;0.50;;
21677;SDS011;11000;50.360;7.582;2023-04-12T11:22:04;0.67;;;0.67;;
21677;SDS011;11000;50.360;7.582;2023-04-12T11:24:27;0.83;;;0.67;;
21677;SDS011;11000;50.360;7.582;2023-04-12T11:26:47;0.60;;;0.60;;
21677;SDS011;11000;50.360;7.582;2023-04-12T11:29:10;0.87;;;0.60;;
21677;SDS011;11000;50.360;7.582;2023-04-12T11:31:31;1.50;;;0.50;;
21677;SDS011;11000;50.360;7.582;2023-04-12T11:33:51;0.30;;;0.30;;
21677;SDS011;11000;50.360;7.582;2023-04-12T11:36:12;0.43;;;0.30;;
21677;SDS011;11000;50.360;7.582;2023-04-12T11:38:36;0.30;;;0.30;;
21677;SDS011;11000;50.360;7.582;2023-04-12T11:40:57;0.70;;;0.10;;
21677;SDS011;11000;50.360;7.582;2023-04-12T11:43:20;0.30;;;0.30;;
21677;SDS011;11000;50.360;7.582;2023-04-12T11:45:41;0.63;;;0.30;;
21677;SDS011;11000;50.360;7.582;2023-04-12T11:48:06;0.30;;;0.20;;
21677;SDS011;11000;50.360;7.582;2023-04-12T11:50:28;0.20;;;0.20;;
21677;SDS011;11000;50.360;7.582;2023-04-12T11:52:49;0.40;;;0.30;;
21677;SDS011;11000;50.360;7.582;2023-04-12T11:55:10;0.20;;;0.20;;
21677;SDS011;11000;50.360;7.582;2023-04-12T11:57:31;0.20;;;0.10;;
21677;SDS011;11000;50.360;7.582;2023-04-12T11:59:52;0.40;;;0.10;;
21677;SDS011;11000;50.360;7.582;2023-04-12T12:02:15;0.33;;;0.20;;
21677;SDS011;11000;50.360;7.582;2023-04-12T12:04:36;0.33;;;0.13;;
21677;SDS011;11000;50.360;7.582;2023-04-12T12:06:59;0.10;;;0.10;;
21677;SDS011;11000;50.360;7.582;2023-04-12T12:09:20;0.70;;;0.20;;
21677;SDS011;11000;50.360;7.582;2023-04-12T12:11:41;0.40;;;0.30;;
21677;SDS011;11000;50.360;7.582;2023-04-12T12:14:01;0.30;;;0.20;;
21677;SDS011;11000;50.360;7.582;2023-04-12T12:16:23;0.77;;;0.20;;
21677;SDS011;11000;50.360;7.582;2023-04-12T12:18:47;0.33;;;0.13;;
21677;SDS011;11000;50.360;7.582;2023-04-12T12:21:08;0.23;;;0.20;;
21677;SDS011;11000;50.360;7.582;2023-04-12T12:23:32;0.50;;;0.30;;
21677;SDS011;11000;50.360;7.582;2023-04-12T12:25:55;0.80;;;0.37;;
21677;SDS011;11000;50.360;7.582;2023-04-12T12:28:22;0.30;;;0.27;;
21677;SDS011;11000;50.360;7.582;2023-04-12T12:30:43;0.60;;;0.60;;
21677;SDS011;11000;50.360;7.582;2023-04-12T12:33:03;0.20;;;0.20;;
21677;SDS011;11000;50.360;7.582;2023-04-12T12:35:24;0.30;;;0.30;;
21677;SDS011;11000;50.360;7.582;2023-04-12T12:37:50;0.93;;;0.20;;
21677;SDS011;11000;50.360;7.582;2023-04-12T12:40:12;0.43;;;0.20;;
21677;SDS011;11000;50.360;7.582;2023-04-12T12:42:33;0.30;;;0.20;;
21677;SDS011;11000;50.360;7.582;2023-04-12T12:44:53;0.23;;;0.10;;
21677;SDS011;11000;50.360;7.582;2023-04-12T12:47:14;0.30;;;0.30;;
21677;SDS011;11000;50.360;7.582;2023-04-12T12:49:34;0.47;;;0.30;;
21677;SDS011;11000;50.360;7.582;2023-04-12T12:51:55;0.10;;;0.10;;
21677;SDS011;11000;50.360;7.582;2023-04-12T12:54:16;0.13;;;0.10;;
21677;SDS011;11000;50.360;7.582;2023-04-12T12:56:36;0.70;;;0.20;;
21677;SDS011;11000;50.360;7.582;2023-04-12T12:58:57;0.13;;;0.13;;
21677;SDS011;11000;50.360;7.582;2023-04-12T13:01:18;2.07;;;0.10;;
21677;SDS011;11000;50.360;7.582;2023-04-12T13:03:38;0.53;;;0.20;;
21677;SDS011;11000;50.360;7.582;2023-04-12T13:05:59;0.50;;;0.10;;
21677;SDS011;11000;50.360;7.582;2023-04-12T13:08:19;0.23;;;0.23;;
21677;SDS011;11000;50.360;7.582;2023-04-12T13:10:40;0.67;;;0.20;;
21677;SDS011;11000;50.360;7.582;2023-04-12T13:13:01;0.10;;;0.10;;
21677;SDS011;11000;50.360;7.582;2023-04-12T13:15:22;0.30;;;0.17;;
21677;SDS011;11000;50.360;7.582;2023-04-12T13:17:42;0.30;;;0.20;;
21677;SDS011;11000;50.360;7.582;2023-04-12T13:20:03;0.60;;;0.50;;
21677;SDS011;11000;50.360;7.582;2023-04-12T13:22:24;1.20;;;0.20;;
21677;SDS011;11000;50.360;7.582;2023-04-12T13:24:46;0.80;;;0.50;;
21677;SDS011;11000;50.360;7.582;2023-04-12T13:27:06;0.77;;;0.50;;
21677;SDS011;11000;50.360;7.582;2023-04-12T13:29:27;1.30;;;0.70;;
21677;SDS011;11000;50.360;7.582;2023-04-12T13:31:48;0.73;;;0.57;;
21677;SDS011;11000;50.360;7.582;2023-04-12T13:34:08;0.90;;;0.60;;
21677;SDS011;11000;50.360;7.582;2023-04-12T13:36:29;0.50;;;0.50;;
21677;SDS011;11000;50.360;7.582;2023-04-12T13:38:49;2.93;;;0.93;;
21677;SDS011;11000;50.360;7.582;2023-04-12T13:41:10;0.90;;;0.70;;
21677;SDS011;11000;50.360;7.582;2023-04-12T13:43:31;1.93;;;0.70;;
21677;SDS011;11000;50.360;7.582;2023-04-12T13:45:51;0.70;;;0.67;;
21677;SDS011;11000;50.360;7.582;2023-04-12T13:48:12;0.70;;;0.50;;
21677;SDS011;11000;50.360;7.582;2023-04-12T13:50:32;1.20;;;0.73;;
21677;SDS011;11000;50.360;7.582;2023-04-12T13:52:53;2.33;;;0.73;;
21677;SDS011;11000;50.360;7.582;2023-04-12T13:55:13;1.03;;;0.63;;
21677;SDS011;11000;50.360;7.582;2023-04-12T13:57:34;0.70;;;0.70;;
21677;SDS011;11000;50.360;7.582;2023-04-12T13:59:55;2.17;;;0.90;;
21677;SDS011;11000;50.360;7.582;2023-04-12T14:02:15;1.20;;;0.70;;
21677;SDS011;11000;50.360;7.582;2023-04-12T14:04:36;2.77;;;0.83;;
21677;SDS011;11000;50.360;7.582;2023-04-12T14:07:10;1.40;;;0.93;;
21677;SDS011;11000;50.360;7.582;2023-04-12T14:09:31;1.50;;;1.10;;
21677;SDS011;11000;50.360;7.582;2023-04-12T14:11:53;3.03;;;1.23;;
21677;SDS011;11000;50.360;7.582;2023-04-12T14:14:15;1.50;;;1.10;;
21677;SDS011;11000;50.360;7.582;2023-04-12T14:16:35;2.70;;;1.13;;
21677;SDS011;11000;50.360;7.582;2023-04-12T14:18:56;3.97;;;1.17;;
21677;SDS011;11000;50.360;7.582;2023-04-12T14:21:16;2.70;;;1.00;;
21677;SDS011;11000;50.360;7.582;2023-04-12T14:23:37;2.33;;;1.10;;
21677;SDS011;11000;50.360;7.582;2023-04-12T14:25:57;2.13;;;1.00;;
21677;SDS011;11000;50.360;7.582;2023-04-12T14:28:18;3.47;;;1.17;;
21677;SDS011;11000;50.360;7.582;2023-04-12T14:30:40;1.63;;;1.17;;
21677;SDS011;11000;50.360;7.582;2023-04-12T14:33:01;3.27;;;1.57;;
21677;SDS011;11000;50.360;7.582;2023-04-12T14:35:21;1.50;;;1.30;;
21677;SDS011;11000;50.360;7.582;2023-04-12T14:37:42;2.90;;;1.27;;